Time;durP1;ratioP1;P1;durP2;ratioP2;P2;SDS_P1;SDS_P2;PMS_P1;PMS_P2;Temp;Humidity;BMP_temperature;BMP_pressure;BME280_temperature;BME280_humidity;BME280_pressure;Samples;Min_cycle;Max_cycle;Signal;HPM_P1;HPM_P2
2023/01/17 00:02:04;;;;;;;9.00;1.45;;;3.20;99.90;;;;;;5099625;27;20395;-82
2023/01/17 00:10:07;;;;;;;4.10;1.27;;;3.30;99.90;;;;;;5113389;27;20051;-81
2023/01/17 00:12:36;;;;;;;5.32;1.33;;;3.40;99.90;;;;;;5103850;27;20133;-82
2023/01/17 00:15:03;;;;;;;4.32;0.90;;;3.40;99.90;;;;;;5088841;27;20047;-81
2023/01/17 00:17:29;;;;;;;5.68;1.20;;;3.40;99.90;;;;;;5101538;27;20046;-80
2023/01/17 01:35:24;;;;;;;2.40;0.80;;;3.10;99.90;;;;;;5109931;27;20046;-82
2023/01/17 01:37:50;;;;;;;1.17;0.55;;;3.00;99.90;;;;;;5086162;27;20062;-82
2023/01/17 01:40:17;;;;;;;2.35;0.52;;;2.90;99.90;;;;;;5105788;27;20050;-81
2023/01/17 01:42:51;;;;;;;5.68;1.17;;;2.80;99.90;;;;;;5099447;27;20046;-81
2023/01/17 01:45:25;;;;;;;7.05;1.40;;;2.90;99.90;;;;;;5099952;27;20062;-82
2023/01/17 01:47:57;;;;;;;7.63;1.45;;;2.90;99.90;;;;;;5098630;27;20046;-81
2023/01/17 01:50:22;;;;;;;4.60;0.98;;;4.30;99.90;;;;;;5106531;27;20068;-81
2023/01/17 01:52:53;;;;;;;4.70;0.85;;;3.00;99.90;;;;;;5091072;27;20055;-82
2023/01/17 01:55:24;;;;;;;3.05;0.85;;;2.90;99.90;;;;;;5100174;27;20046;-82
2023/01/17 01:57:54;;;;;;;6.65;0.80;;;2.90;99.90;;;;;;5115110;27;20058;-82
2023/01/17 02:00:33;;;;;;;3.45;0.93;;;2.90;99.90;;;;;;5099503;27;20050;-82
2023/01/17 02:03:04;;;;;;;3.13;0.90;;;2.90;99.90;;;;;;5114912;27;20051;-81
2023/01/17 02:05:31;;;;;;;10.75;1.35;;;3.00;99.90;;;;;;5108953;27;20503;-81
2023/01/17 02:08:06;;;;;;;6.80;1.10;;;3.20;99.90;;;;;;5097775;27;20511;-81
2023/01/17 02:10:38;;;;;;;14.38;1.52;;;3.30;99.90;;;;;;5099369;27;20765;-82
2023/01/17 02:13:05;;;;;;;3.90;0.95;;;3.50;99.90;;;;;;5118067;27;20466;-81
2023/01/17 02:15:46;;;;;;;5.68;1.08;;;3.50;99.90;;;;;;5116154;27;20035;-81
2023/01/17 02:18:35;;;;;;;4.93;1.08;;;3.50;99.90;;;;;;5106089;27;20043;-81
2023/01/17 02:21:23;;;;;;;5.47;1.30;;;3.50;99.90;;;;;;5106078;27;20174;-81
2023/01/17 02:24:29;;;;;;;5.07;1.15;;;3.60;99.90;;;;;;5099923;27;20063;-82
2023/01/17 02:27:37;;;;;;;4.68;1.10;;;3.50;99.90;;;;;;5116174;27;20055;-82
2023/01/17 02:30:24;;;;;;;3.55;1.13;;;3.60;99.90;;;;;;5114023;27;20421;-82
2023/01/17 02:33:02;;;;;;;5.85;1.42;;;3.50;99.90;;;;;;5113563;27;20066;-82
2023/01/17 02:35:34;;;;;;;6.53;1.20;;;3.50;99.90;;;;;;5099169;27;20042;-81
2023/01/17 02:38:09;;;;;;;9.23;1.40;;;3.50;99.90;;;;;;5104099;27;20043;-83
2023/01/17 02:40:46;;;;;;;6.70;0.90;;;3.50;99.90;;;;;;5105525;27;20050;-81
2023/01/17 02:43:15;;;;;;;8.82;1.00;;;3.50;99.90;;;;;;5086228;27;20043;-82
2023/01/17 02:45:41;;;;;;;10.27;1.52;;;3.60;99.90;;;;;;5113915;27;20074;-82
2023/01/17 02:48:11;;;;;;;6.38;1.30;;;4.00;99.90;;;;;;5084087;27;20044;-81
2023/01/17 02:50:44;;;;;;;6.78;1.42;;;3.60;99.90;;;;;;5103760;27;20491;-81
2023/01/17 02:53:34;;;;;;;6.28;1.60;;;3.80;99.90;;;;;;5099526;27;20597;-81
2023/01/17 02:56:04;;;;;;;9.98;1.55;;;3.70;99.90;;;;;;5113203;27;20433;-81
2023/01/17 02:59:06;;;;;;;6.63;1.50;;;3.70;99.90;;;;;;5103613;27;20621;-81
2023/01/17 03:01:57;;;;;;;8.18;1.77;;;3.60;99.90;;;;;;5006736;28;20053;-82
2023/01/17 03:05:09;;;;;;;7.72;1.40;;;3.40;99.90;;;;;;5055052;27;20054;-82
2023/01/17 03:07:38;;;;;;;5.70;1.48;;;3.30;99.90;;;;;;5098982;27;20400;-81
2023/01/17 03:10:05;;;;;;;4.65;1.05;;;3.30;99.90;;;;;;5100097;27;20309;-81
2023/01/17 03:12:33;;;;;;;3.83;1.30;;;3.20;99.90;;;;;;5102485;27;20054;-82
2023/01/17 03:14:59;;;;;;;6.18;0.93;;;3.40;99.90;;;;;;5102803;27;20130;-82
2023/01/17 03:17:31;;;;;;;2.55;0.98;;;3.30;99.90;;;;;;5088175;27;20050;-81
2023/01/17 03:19:57;;;;;;;4.70;0.80;;;3.40;99.90;;;;;;5116165;27;20121;-81
2023/01/17 03:22:24;;;;;;;3.90;0.85;;;3.30;99.90;;;;;;5085177;27;20046;-83
2023/01/17 03:24:49;;;;;;;4.07;0.93;;;3.30;99.90;;;;;;5083676;27;20328;-82
2023/01/17 03:27:15;;;;;;;3.20;0.82;;;3.30;99.90;;;;;;5116294;27;20042;-82
2023/01/17 03:29:41;;;;;;;3.40;0.80;;;3.30;99.90;;;;;;5079156;27;20047;-81
2023/01/17 03:32:07;;;;;;;2.95;0.80;;;3.20;99.90;;;;;;5084687;27;20045;-82
2023/01/17 03:34:33;;;;;;;5.30;0.90;;;3.40;99.90;;;;;;5084170;27;20116;-81
2023/01/17 03:36:58;;;;;;;7.15;1.20;;;3.20;99.90;;;;;;5100742;27;20042;-82
2023/01/17 03:39:24;;;;;;;6.05;0.93;;;3.20;99.90;;;;;;5097815;27;20043;-81
2023/01/17 03:41:50;;;;;;;6.38;1.00;;;3.20;99.90;;;;;;5116667;27;20043;-83
2023/01/17 03:44:16;;;;;;;5.03;1.08;;;3.20;99.90;;;;;;5097224;27;20050;-80
2023/01/17 03:46:41;;;;;;;6.32;0.85;;;2.00;99.90;;;;;;5084308;27;20082;-81
2023/01/17 03:49:08;;;;;;;4.90;0.82;;;3.20;99.90;;;;;;5070854;27;20475;-80
2023/01/17 03:51:34;;;;;;;6.80;0.90;;;3.20;99.90;;;;;;5105627;27;20077;-82
2023/01/17 03:54:00;;;;;;;4.18;0.90;;;3.20;99.90;;;;;;5100499;27;20508;-81
2023/01/17 03:56:26;;;;;;;3.28;0.80;;;3.20;99.90;;;;;;5099407;27;20046;-81
2023/01/17 03:58:52;;;;;;;3.03;0.80;;;3.20;99.90;;;;;;5103533;27;20167;-81
2023/01/17 04:01:18;;;;;;;4.95;0.80;;;2.20;99.90;;;;;;5090645;27;20070;-81
2023/01/17 04:03:44;;;;;;;4.05;0.70;;;3.30;99.90;;;;;;5073646;27;20681;-80
2023/01/17 04:06:10;;;;;;;2.58;0.80;;;2.60;99.90;;;;;;5100930;27;20093;-83
2023/01/17 04:08:35;;;;;;;2.47;0.60;;;3.20;99.90;;;;;;5073303;27;20045;-83
2023/01/17 04:11:01;;;;;;;6.93;0.73;;;2.10;99.90;;;;;;5107692;27;20139;-80
2023/01/17 04:13:33;;;;;;;4.47;0.80;;;3.20;99.90;;;;;;5116512;27;20067;-80
2023/01/17 04:15:59;;;;;;;2.20;0.60;;;3.20;99.90;;;;;;5100860;27;20538;-82
2023/01/17 04:18:25;;;;;;;3.67;0.80;;;3.10;99.90;;;;;;5104393;27;20039;-80
2023/01/17 04:20:51;;;;;;;2.88;0.80;;;3.10;99.90;;;;;;5086150;27;20038;-80
2023/01/17 04:23:17;;;;;;;3.35;0.80;;;3.10;99.90;;;;;;5070174;27;20043;-80
2023/01/17 04:25:43;;;;;;;5.93;0.93;;;3.10;99.90;;;;;;5101273;27;20187;-82
2023/01/17 04:28:12;;;;;;;1.38;0.40;;;3.10;99.90;;;;;;5087833;27;20129;-81
2023/01/17 04:30:38;;;;;;;5.93;0.90;;;3.10;99.90;;;;;;5109571;27;20039;-80
2023/01/17 04:33:04;;;;;;;5.63;1.23;;;;;;;;;;5101999;27;20043;-81
2023/01/17 04:35:32;;;;;;;2.75;0.73;;;3.10;99.90;;;;;;5118330;27;20049;-81
2023/01/17 04:37:58;;;;;;;2.13;0.65;;;3.10;99.90;;;;;;5104599;27;20174;-82
2023/01/17 04:40:25;;;;;;;2.67;0.82;;;3.00;99.90;;;;;;5119129;27;20067;-81
2023/01/17 04:42:51;;;;;;;4.10;0.93;;;3.00;99.90;;;;;;5102587;27;20051;-80
2023/01/17 04:45:17;;;;;;;5.85;0.80;;;3.10;99.90;;;;;;5092323;27;20050;-80
2023/01/17 04:47:46;;;;;;;7.72;1.05;;;3.10;99.90;;;;;;5107314;27;20074;-79
2023/01/17 04:50:13;;;;;;;5.95;1.13;;;3.10;99.90;;;;;;5100330;27;20062;-80
2023/01/17 04:52:39;;;;;;;3.20;0.70;;;3.20;99.90;;;;;;5108109;27;20109;-81
2023/01/17 04:55:05;;;;;;;3.25;0.98;;;3.40;99.90;;;;;;5086422;27;20042;-80
2023/01/17 04:57:31;;;;;;;2.53;0.70;;;3.10;99.90;;;;;;5103843;27;20100;-81
2023/01/17 04:59:57;;;;;;;4.55;1.85;;;3.10;99.90;;;;;;5091422;27;20043;-81
2023/01/17 05:02:22;;;;;;;2.97;0.77;;;3.20;99.90;;;;;;5107629;27;20051;-80
2023/01/17 05:04:48;;;;;;;5.57;0.98;;;3.10;99.90;;;;;;5092941;27;20067;-80
2023/01/17 05:07:17;;;;;;;4.80;0.93;;;3.20;99.90;;;;;;5091216;27;20035;-80
2023/01/17 05:09:44;;;;;;;4.72;0.75;;;3.30;99.90;;;;;;5099949;27;20047;-80
2023/01/17 05:12:10;;;;;;;3.17;0.73;;;3.30;99.90;;;;;;5086262;27;20483;-81
2023/01/17 05:14:35;;;;;;;4.15;0.80;;;3.60;99.90;;;;;;5085740;27;20043;-80
2023/01/17 05:17:04;;;;;;;5.70;0.90;;;3.20;99.90;;;;;;5072178;27;20498;-80
2023/01/17 05:19:29;;;;;;;4.80;0.80;;;3.30;99.90;;;;;;5089254;27;20088;-81
2023/01/17 05:22:02;;;;;;;2.78;0.65;;;3.20;99.90;;;;;;5101240;27;20127;-81
2023/01/17 05:24:29;;;;;;;2.60;0.88;;;3.20;99.90;;;;;;5087359;27;20134;-81
2023/01/17 05:27:01;;;;;;;4.80;1.02;;;3.30;99.90;;;;;;5114777;27;20047;-81
2023/01/17 05:29:28;;;;;;;7.22;1.10;;;3.30;99.90;;;;;;5089065;27;20044;-80
2023/01/17 05:31:54;;;;;;;5.93;0.93;;;3.30;99.90;;;;;;5112430;27;20043;-82
2023/01/17 05:34:20;;;;;;;4.43;1.08;;;3.30;99.90;;;;;;5096460;27;20062;-81
2023/01/17 05:36:45;;;;;;;4.30;0.80;;;3.40;99.90;;;;;;5068395;27;20047;-80
2023/01/17 05:39:11;;;;;;;3.45;1.25;;;3.40;99.90;;;;;;5071338;27;20487;-81
2023/01/17 05:41:37;;;;;;;6.85;0.95;;;3.40;99.90;;;;;;5087618;27;20563;-80
2023/01/17 05:44:03;;;;;;;3.83;0.80;;;3.30;99.90;;;;;;5082398;27;20522;-81
2023/01/17 05:46:29;;;;;;;3.65;0.98;;;3.30;99.90;;;;;;5104887;27;20508;-81
2023/01/17 05:48:55;;;;;;;3.13;1.35;;;3.30;99.90;;;;;;5102166;27;20059;-81
2023/01/17 05:51:21;;;;;;;2.58;0.80;;;3.30;99.90;;;;;;5083955;27;20300;-80
2023/01/17 05:53:46;;;;;;;2.28;0.65;;;3.30;99.90;;;;;;5087978;27;20534;-80
2023/01/17 05:56:12;;;;;;;4.55;1.10;;;3.30;99.90;;;;;;5076833;27;20247;-80
2023/01/17 05:58:39;;;;;;;1.73;0.60;;;3.30;99.90;;;;;;5083140;27;20051;-80
2023/01/17 06:01:05;;;;;;;4.20;1.05;;;3.60;99.90;;;;;;5098283;27;20556;-81
2023/01/17 06:03:31;;;;;;;3.40;0.80;;;3.40;99.90;;;;;;5082216;27;20047;-81
2023/01/17 06:05:57;;;;;;;6.43;0.90;;;3.40;99.90;;;;;;5082076;27;20055;-80
2023/01/17 06:08:23;;;;;;;1.35;0.60;;;3.40;99.90;;;;;;5099216;27;20496;-80
2023/01/17 06:10:52;;;;;;;3.72;1.30;;;3.40;99.90;;;;;;5082613;27;20039;-81
2023/01/17 06:13:20;;;;;;;3.35;0.75;;;3.40;99.90;;;;;;5083194;27;20444;-80
2023/01/17 06:15:46;;;;;;;4.35;0.80;;;3.40;99.90;;;;;;5103671;27;20059;-81
2023/01/17 06:18:14;;;;;;;2.72;0.50;;;3.30;99.90;;;;;;5095458;27;20451;-80
2023/01/17 06:20:41;;;;;;;3.17;0.80;;;3.20;99.90;;;;;;5103426;27;20038;-80
2023/01/17 06:23:09;;;;;;;4.15;0.90;;;3.30;99.90;;;;;;5102883;27;20138;-81
2023/01/17 06:25:42;;;;;;;4.65;0.80;;;3.20;99.90;;;;;;5103719;27;20051;-80
2023/01/17 06:28:09;;;;;;;3.47;0.80;;;3.20;99.90;;;;;;5103833;27;20043;-80
2023/01/17 06:30:35;;;;;;;4.47;1.00;;;3.20;99.90;;;;;;5104717;27;20047;-80
2023/01/17 06:33:03;;;;;;;5.93;0.90;;;3.20;99.90;;;;;;5100358;27;20059;-80
2023/01/17 06:35:29;;;;;;;5.32;0.98;;;3.20;99.90;;;;;;5094200;27;20062;-80
2023/01/17 06:37:57;;;;;;;3.63;0.90;;;3.20;99.90;;;;;;5084299;27;20487;-81
2023/01/17 06:40:24;;;;;;;4.30;0.90;;;3.20;99.90;;;;;;5100479;27;20215;-81
2023/01/17 06:42:50;;;;;;;4.13;0.90;;;3.20;99.90;;;;;;5100435;27;20040;-80
2023/01/17 06:45:15;;;;;;;4.88;0.77;;;3.20;99.90;;;;;;5097105;27;20039;-79
2023/01/17 06:47:42;;;;;;;5.55;1.02;;;3.20;99.90;;;;;;5069354;27;20500;-82
2023/01/17 06:50:11;;;;;;;3.22;0.80;;;3.20;99.90;;;;;;5110882;27;20506;-81
2023/01/17 06:52:37;;;;;;;6.00;0.93;;;3.20;99.90;;;;;;5110286;27;20059;-82
2023/01/17 06:55:03;;;;;;;2.05;0.63;;;3.20;99.90;;;;;;5113911;27;20499;-81
2023/01/17 06:57:29;;;;;;;1.92;0.55;;;3.10;99.90;;;;;;5063019;27;20050;-79
2023/01/17 06:59:54;;;;;;;3.13;0.93;;;3.10;99.90;;;;;;5093031;27;20043;-81
2023/01/17 07:02:22;;;;;;;4.45;0.70;;;3.10;99.90;;;;;;5080769;27;20091;-81
2023/01/17 07:04:47;;;;;;;4.82;0.93;;;3.10;99.90;;;;;;5112494;27;20053;-81
2023/01/17 07:07:13;;;;;;;4.22;1.10;;;3.10;99.90;;;;;;5068077;27;20038;-83
2023/01/17 07:09:39;;;;;;;2.38;0.82;;;3.10;99.90;;;;;;5080747;27;20065;-83
2023/01/17 07:12:06;;;;;;;3.03;0.77;;;3.00;99.90;;;;;;5080492;28;20039;-83
2023/01/17 07:14:37;;;;;;;1.75;0.80;;;1.50;99.90;;;;;;5085629;27;20051;-82
2023/01/17 07:17:04;;;;;;;5.32;0.82;;;3.00;99.90;;;;;;5106829;27;20049;-82
2023/01/17 07:19:30;;;;;;;2.22;1.02;;;3.00;99.90;;;;;;5084653;27;20073;-82
2023/01/17 07:21:56;;;;;;;2.30;0.75;;;2.90;99.90;;;;;;5094581;28;20480;-82
2023/01/17 07:24:25;;;;;;;3.55;1.55;;;2.90;99.90;;;;;;5079213;28;20115;-81
2023/01/17 07:26:51;;;;;;;4.18;0.93;;;2.80;99.90;;;;;;5083021;28;20122;-83
2023/01/17 07:29:19;;;;;;;3.05;0.70;;;2.70;99.90;;;;;;5114269;27;20135;-84
2023/01/17 07:31:48;;;;;;;4.60;0.70;;;2.70;99.90;;;;;;5084486;28;20043;-83
2023/01/17 07:34:14;;;;;;;2.78;0.60;;;2.70;99.90;;;;;;5101529;28;20280;-82
2023/01/17 07:36:40;;;;;;;5.55;0.95;;;3.20;99.90;;;;;;5100177;27;20043;-81
2023/01/17 07:39:05;;;;;;;4.20;0.77;;;2.90;99.90;;;;;;5096520;28;20450;-80
2023/01/17 07:41:33;;;;;;;3.50;1.00;;;2.90;99.90;;;;;;5068153;28;20039;-81
2023/01/17 07:43:59;;;;;;;4.43;0.80;;;2.90;99.90;;;;;;5102763;28;20055;-82
2023/01/17 07:46:25;;;;;;;4.15;0.82;;;3.00;99.90;;;;;;5086503;28;20058;-81
2023/01/17 07:48:50;;;;;;;2.38;0.65;;;3.20;99.90;;;;;;5078963;28;20157;-80
2023/01/17 07:51:16;;;;;;;3.67;0.80;;;3.00;99.90;;;;;;5112041;28;20092;-81
2023/01/17 07:53:42;;;;;;;4.57;0.80;;;3.00;99.90;;;;;;5100943;28;20575;-80
2023/01/17 07:56:08;;;;;;;5.30;1.15;;;2.90;99.90;;;;;;5079649;28;20119;-82
2023/01/17 07:58:34;;;;;;;5.30;1.02;;;2.90;99.90;;;;;;5086762;28;20101;-81
2023/01/17 08:01:05;;;;;;;4.63;0.90;;;1.20;99.90;;;;;;5103121;28;20387;-82
2023/01/17 08:03:33;;;;;;;3.75;1.00;;;3.00;99.90;;;;;;5094194;28;20744;-82
2023/01/17 08:06:00;;;;;;;5.00;1.10;;;3.00;99.90;;;;;;5079632;28;20058;-85
2023/01/17 08:08:27;;;;;;;3.92;1.10;;;3.00;99.90;;;;;;5090357;28;20134;-82
2023/01/17 08:10:53;;;;;;;7.10;1.08;;;3.10;99.90;;;;;;5100774;28;20043;-81
2023/01/17 08:13:20;;;;;;;6.30;0.95;;;3.10;99.90;;;;;;5076426;28;20054;-81
2023/01/17 08:15:50;;;;;;;4.18;0.82;;;3.10;99.90;;;;;;5118577;28;20065;-81
2023/01/17 08:18:16;;;;;;;6.07;0.90;;;3.10;99.90;;;;;;5100089;28;20183;-81
2023/01/17 08:20:43;;;;;;;6.65;2.08;;;3.10;99.90;;;;;;5100296;28;20723;-82
2023/01/17 08:23:30;;;;;;;2.90;0.90;;;3.10;99.90;;;;;;5099779;28;20055;-87
2023/01/17 08:26:04;;;;;;;4.95;0.95;;;4.60;99.90;;;;;;5116345;28;20048;-83
2023/01/17 08:28:33;;;;;;;5.15;1.15;;;3.10;99.90;;;;;;5073009;28;20142;-85
2023/01/17 08:31:09;;;;;;;3.88;1.05;;;3.10;99.90;;;;;;5116750;28;20461;-84
2023/01/17 08:33:35;;;;;;;;;;;3.00;99.90;;;;;;5096726;28;20056;-81
2023/01/17 08:36:01;;;;;;;4.55;1.23;;;3.10;99.90;;;;;;5084857;28;19926;-81
2023/01/17 08:38:27;;;;;;;5.35;0.95;;;3.10;99.90;;;;;;5095023;28;20155;-80
2023/01/17 08:40:53;;;;;;;4.95;1.00;;;3.10;99.90;;;;;;5100656;28;20138;-81
2023/01/17 08:43:19;;;;;;;4.18;0.70;;;3.10;99.90;;;;;;5082531;28;20044;-81
2023/01/17 08:45:47;;;;;;;1.88;0.65;;;1.90;99.90;;;;;;5093244;27;20403;-82
2023/01/17 08:48:13;;;;;;;1.23;0.40;;;3.20;99.90;;;;;;5095810;27;20128;-82
2023/01/17 08:50:39;;;;;;;2.17;0.60;;;3.70;99.90;;;;;;5111965;27;20159;-80
2023/01/17 08:53:05;;;;;;;2.35;0.73;;;1.60;99.90;;;;;;5106003;27;20568;-81
2023/01/17 08:55:32;;;;;;;5.35;1.00;;;3.50;99.90;;;;;;5092271;27;20043;-80
2023/01/17 08:57:58;;;;;;;2.67;0.77;;;4.00;99.90;;;;;;5101617;27;20409;-80
2023/01/17 09:00:23;;;;;;;3.97;0.70;;;4.90;99.90;;;;;;5105462;27;20045;-81
2023/01/17 09:02:53;;;;;;;2.85;0.70;;;5.80;99.90;;;;;;5092822;27;20534;-82
2023/01/17 09:05:18;;;;;;;1.90;0.63;;;5.90;99.90;;;;;;5091352;27;20062;-82
2023/01/17 09:07:44;;;;;;;6.82;0.80;;;7.40;99.90;;;;;;5105161;27;20620;-82
2023/01/17 09:10:11;;;;;;;4.32;0.70;;;7.70;99.90;;;;;;5087943;27;20103;-82
2023/01/17 09:12:37;;;;;;;5.32;1.00;;;8.00;99.90;;;;;;5108529;27;20052;-83
2023/01/17 09:15:04;;;;;;;2.78;0.60;;;9.70;99.90;;;;;;5102670;27;20134;-83
2023/01/17 09:17:29;;;;;;;4.43;0.88;;;8.50;99.90;;;;;;5085807;27;20126;-82
2023/01/17 09:19:55;;;;;;;2.80;0.75;;;8.90;99.90;;;;;;5102650;27;20126;-82
2023/01/17 09:22:21;;;;;;;2.38;0.65;;;8.30;99.90;;;;;;5102694;27;20491;-82
2023/01/17 09:24:47;;;;;;;4.22;0.65;;;7.50;99.90;;;;;;5089586;27;20075;-81
2023/01/17 09:27:17;;;;;;;1.77;0.70;;;5.80;99.90;;;;;;5101080;27;20051;-81
2023/01/17 09:29:46;;;;;;;3.10;0.85;;;7.30;99.90;;;;;;5092341;27;20054;-82
2023/01/17 09:32:11;;;;;;;5.82;0.98;;;7.50;99.90;;;;;;5105025;27;20043;-82
2023/01/17 09:34:37;;;;;;;3.28;0.77;;;7.70;99.90;;;;;;5088111;27;20241;-83
2023/01/17 09:37:03;;;;;;;3.03;0.75;;;8.00;99.90;;;;;;5082971;27;20152;-82
2023/01/17 09:39:29;;;;;;;4.53;0.80;;;7.90;99.90;;;;;;5096526;27;20044;-82
2023/01/17 09:42:18;;;;;;;1.63;0.70;;;7.70;99.90;;;;;;5099917;27;20096;-82
2023/01/17 09:44:50;;;;;;;1.00;0.55;;;7.60;99.90;;;;;;5106588;27;20132;-81
2023/01/17 09:47:31;;;;;;;2.05;0.75;;;7.40;99.90;;;;;;5121738;27;20059;-82
2023/01/17 09:50:12;;;;;;;4.75;0.77;;;6.80;99.90;;;;;;5114811;27;20047;-83
2023/01/17 09:52:38;;;;;;;2.88;0.57;;;6.50;99.90;;;;;;5115354;27;20142;-83
2023/01/17 09:55:04;;;;;;;2.13;0.70;;;6.10;99.90;;;;;;5081145;27;20054;-80
2023/01/17 09:57:45;;;;;;;1.45;0.70;;;5.80;99.90;;;;;;5099969;27;20180;-81
2023/01/17 10:00:26;;;;;;;3.53;0.75;;;5.50;99.90;;;;;;5094974;27;20602;-81
2023/01/17 10:03:16;;;;;;;4.20;0.63;;;5.20;99.90;;;;;;5104773;27;20039;-81
2023/01/17 10:06:00;;;;;;;2.80;1.05;;;5.00;99.90;;;;;;5098617;27;20085;-81
2023/01/17 10:09:06;;;;;;;4.40;0.80;;;4.80;99.90;;;;;;5112062;27;20194;-81
2023/01/17 10:11:47;;;;;;;1.20;0.70;;;4.60;99.90;;;;;;5101045;27;20043;-82
2023/01/17 10:14:39;;;;;;;3.65;0.80;;;4.30;99.90;;;;;;5113854;27;20083;-81
2023/01/17 10:17:12;;;;;;;3.08;1.00;;;4.20;99.90;;;;;;5077051;27;20101;-80
2023/01/17 10:20:16;;;;;;;1.70;1.17;;;4.10;99.90;;;;;;5096578;27;20056;-80
2023/01/17 10:23:02;;;;;;;2.55;0.70;;;3.90;99.90;;;;;;5101394;27;20047;-82
2023/01/17 10:25:48;;;;;;;1.65;0.60;;;3.90;99.90;;;;;;5113212;27;20412;-81
2023/01/17 10:28:19;;;;;;;2.25;0.90;;;3.90;99.90;;;;;;5103257;27;20051;-82
2023/01/17 10:30:56;;;;;;;2.10;0.60;;;4.10;99.90;;;;;;5100176;27;20051;-80
2023/01/17 10:33:36;;;;;;;1.60;0.70;;;4.20;99.90;;;;;;5098413;27;20847;-81
2023/01/17 10:36:14;;;;;;;2.15;0.90;;;4.90;99.90;;;;;;5113607;27;20126;-82
2023/01/17 10:38:44;;;;;;;5.10;0.90;;;6.00;99.90;;;;;;5114310;27;20039;-83
2023/01/17 10:41:33;;;;;;;5.00;1.40;;;6.30;99.90;;;;;;5112650;27;20059;-81
2023/01/17 10:44:01;;;;;;;1.80;0.88;;;6.90;99.90;;;;;;5092781;27;20043;-81
2023/01/17 10:46:42;;;;;;;3.85;1.10;;;7.60;99.90;;;;;;5115033;27;20047;-82
2023/01/17 10:49:21;;;;;;;2.85;0.70;;;8.10;99.90;;;;;;5115113;27;20134;-82
2023/01/17 10:51:59;;;;;;;3.50;0.90;;;8.40;99.90;;;;;;5104191;27;20294;-82
2023/01/17 10:54:34;;;;;;;1.90;0.80;;;8.60;99.90;;;;;;5115326;27;20483;-81
2023/01/17 10:57:00;;;;;;;4.15;1.20;;;8.70;99.90;;;;;;5107178;27;20043;-83
2023/01/17 10:59:35;;;;;;;2.03;0.90;;;8.30;99.90;;;;;;5100099;27;20043;-82
2023/01/17 11:02:08;;;;;;;2.30;0.75;;;8.40;99.90;;;;;;5113858;27;20054;-83
2023/01/17 11:04:39;;;;;;;5.72;0.90;;;8.30;99.90;;;;;;5098319;27;20453;-82
2023/01/17 11:07:23;;;;;;;3.38;1.15;;;7.50;99.90;;;;;;5103515;27;20414;-82
2023/01/17 11:09:52;;;;;;;2.47;0.73;;;6.90;99.90;;;;;;5099508;27;20061;-82
2023/01/17 11:12:38;;;;;;;3.22;0.80;;;6.40;99.90;;;;;;5113943;27;20116;-82
2023/01/17 11:15:18;;;;;;;5.72;1.15;;;6.10;99.90;;;;;;5112545;27;20132;-81
2023/01/17 11:17:52;;;;;;;3.20;0.80;;;5.80;99.90;;;;;;5111890;27;20035;-81
2023/01/17 11:20:39;;;;;;;1.40;0.80;;;5.60;99.90;;;;;;5102034;27;20070;-81
2023/01/17 11:23:16;;;;;;;5.55;1.10;;;5.80;99.90;;;;;;5114731;27;20080;-83
2023/01/17 11:25:56;;;;;;;3.97;1.00;;;5.50;99.90;;;;;;5112748;27;20052;-81
2023/01/17 11:28:22;;;;;;;6.78;0.95;;;5.50;99.90;;;;;;5101625;27;20457;-82
2023/01/17 11:30:57;;;;;;;2.83;0.90;;;5.40;99.90;;;;;;5113467;27;20031;-81
2023/01/17 11:33:43;;;;;;;2.85;0.70;;;5.30;99.90;;;;;;5098978;28;20271;-83
2023/01/17 11:36:27;;;;;;;2.05;0.80;;;5.30;99.90;;;;;;5103075;28;20124;-84
2023/01/17 11:39:05;;;;;;;4.45;0.85;;;5.20;99.90;;;;;;5104118;28;20054;-86
2023/01/17 11:41:41;;;;;;;3.45;0.68;;;5.20;99.90;;;;;;5115594;28;20039;-86
2023/01/17 11:44:25;;;;;;;3.10;0.82;;;5.40;99.90;;;;;;5105774;28;20075;-86
2023/01/17 11:47:20;;;;;;;3.65;0.95;;;5.00;99.90;;;;;;5095914;28;20040;-81
2023/01/17 11:49:48;;;;;;;4.25;0.98;;;5.00;99.90;;;;;;5089071;28;20056;-83
2023/01/17 11:52:21;;;;;;;3.47;1.00;;;6.60;99.90;;;;;;5115823;28;20386;-83
2023/01/17 11:54:48;;;;;;;1.02;0.60;;;4.90;99.90;;;;;;5098354;28;20050;-81
2023/01/17 11:57:20;;;;;;;3.10;0.80;;;4.90;99.90;;;;;;5099707;28;20079;-83
2023/01/17 11:59:46;;;;;;;2.80;0.90;;;4.90;99.90;;;;;;5095054;28;20040;-83
2023/01/17 12:02:43;;;;;;;3.28;0.70;;;4.90;99.90;;;;;;5095514;28;20079;-83
2023/01/17 12:05:52;;;;;;;3.13;0.90;;;4.90;99.90;;;;;;5094767;28;20055;-82
2023/01/17 12:08:39;;;;;;;2.40;0.82;;;4.90;99.90;;;;;;5074758;28;20611;-82
2023/01/17 12:11:35;;;;;;;5.63;1.08;;;5.00;99.90;;;;;;5094139;28;20043;-82
2023/01/17 12:14:09;;;;;;;4.00;1.20;;;5.10;99.90;;;;;;5076043;28;20066;-82
2023/01/17 12:16:58;;;;;;;2.70;0.85;;;5.10;99.90;;;;;;5096183;28;20189;-82
2023/01/17 12:19:47;;;;;;;1.98;0.80;;;5.10;99.90;;;;;;5094760;27;20603;-83
2023/01/17 12:22:25;;;;;;;3.00;1.27;;;5.10;99.90;;;;;;5094890;27;20074;-82
2023/01/17 12:25:16;;;;;;;3.80;0.73;;;5.00;99.90;;;;;;5116677;27;20048;-80
2023/01/17 12:27:56;;;;;;;2.35;0.63;;;4.90;99.90;;;;;;5106741;27;20058;-84
2023/01/17 12:30:43;;;;;;;2.25;0.75;;;4.90;99.90;;;;;;5105886;27;20392;-83
2023/01/17 12:33:24;;;;;;;2.53;0.60;;;4.90;99.90;;;;;;5106507;27;20043;-91
2023/01/17 12:35:52;;;;;;;1.40;0.65;;;4.80;99.90;;;;;;5107420;27;20043;-83
2023/01/17 12:38:38;;;;;;;1.83;0.63;;;4.80;99.90;;;;;;5118471;27;20039;-82
2023/01/17 12:41:06;;;;;;;4.38;0.70;;;4.80;99.90;;;;;;5104943;27;20053;-80
2023/01/17 12:43:43;;;;;;;3.10;1.13;;;4.70;99.90;;;;;;5102936;27;20373;-82
2023/01/17 12:46:25;;;;;;;3.05;0.80;;;4.70;99.90;;;;;;5103618;27;20043;-82
2023/01/17 12:49:19;;;;;;;2.40;0.88;;;4.70;99.90;;;;;;5098355;27;20041;-82
2023/01/17 12:51:50;;;;;;;2.65;0.65;;;4.70;99.90;;;;;;5099739;27;20070;-83
2023/01/17 12:54:44;;;;;;;2.13;0.70;;;4.70;99.90;;;;;;5116048;27;20076;-82
2023/01/17 12:57:35;;;;;;;1.98;0.93;;;4.70;99.90;;;;;;5114882;27;20054;-83
2023/01/17 13:00:11;;;;;;;1.50;0.80;;;4.60;99.90;;;;;;5092654;27;20099;-83
2023/01/17 13:03:01;;;;;;;1.42;0.70;;;4.50;99.90;;;;;;5106979;27;20509;-83
2023/01/17 13:05:40;;;;;;;3.47;0.80;;;4.50;99.90;;;;;;5071430;27;20062;-83
2023/01/17 13:08:18;;;;;;;3.35;0.90;;;4.40;99.90;;;;;;5100073;27;20047;-83
2023/01/17 13:10:59;;;;;;;4.15;0.70;;;4.40;99.90;;;;;;5116527;27;20062;-83
2023/01/17 13:13:27;;;;;;;3.00;1.05;;;4.40;99.90;;;;;;5105937;27;20583;-82
2023/01/17 13:16:23;;;;;;;3.15;0.80;;;4.40;99.90;;;;;;5087553;27;20051;-82
2023/01/17 13:18:50;;;;;;;4.00;0.80;;;4.50;99.90;;;;;;5103606;27;20114;-81
2023/01/17 13:21:29;;;;;;;3.35;0.73;;;4.50;99.90;;;;;;5117264;27;20300;-82
2023/01/17 13:24:11;;;;;;;3.33;0.90;;;4.50;99.90;;;;;;5107154;27;20050;-81
2023/01/17 13:27:19;;;;;;;3.20;0.80;;;4.40;99.90;;;;;;5115603;27;20054;-82
2023/01/17 13:30:16;;;;;;;1.98;0.88;;;4.50;99.90;;;;;;5107192;27;20042;-83
2023/01/17 13:32:42;;;;;;;;;;;4.60;99.90;;;;;;5097213;27;20130;-82
2023/01/17 13:35:35;;;;;;;2.70;1.00;;;4.60;99.90;;;;;;5100581;27;20342;-82
2023/01/17 13:38:23;;;;;;;1.85;0.82;;;5.80;99.90;;;;;;5108143;27;20043;-82
2023/01/17 13:40:53;;;;;;;1.90;0.80;;;4.70;99.90;;;;;;5101818;27;20157;-81
2023/01/17 13:43:25;;;;;;;5.97;1.00;;;4.70;99.90;;;;;;5099353;27;20134;-81
2023/01/17 13:45:56;;;;;;;2.17;0.90;;;4.70;99.90;;;;;;5113505;27;20058;-81
2023/01/17 13:48:24;;;;;;;2.25;0.82;;;4.70;99.90;;;;;;5114202;27;20369;-82
2023/01/17 13:50:57;;;;;;;4.00;0.88;;;4.60;99.90;;;;;;5106945;27;20099;-82
2023/01/17 13:53:38;;;;;;;2.47;0.77;;;4.50;99.90;;;;;;5116615;27;20400;-82
2023/01/17 13:56:21;;;;;;;2.88;0.85;;;4.50;99.90;;;;;;5098226;27;20515;-83
2023/01/17 13:59:01;;;;;;;6.18;1.08;;;4.60;99.90;;;;;;5115141;27;20068;-83
2023/01/17 14:01:41;;;;;;;4.40;0.77;;;4.60;99.90;;;;;;5102890;27;20039;-81
2023/01/17 14:04:11;;;;;;;3.92;0.80;;;4.70;99.90;;;;;;5103631;27;20058;-82
2023/01/17 14:06:46;;;;;;;3.30;0.90;;;4.80;99.90;;;;;;5118908;27;20047;-81
2023/01/17 14:09:15;;;;;;;2.65;0.68;;;4.70;99.90;;;;;;5100719;27;20476;-82
2023/01/17 14:12:05;;;;;;;1.98;0.60;;;4.70;99.90;;;;;;5106360;27;20134;-82
2023/01/17 14:14:40;;;;;;;3.90;0.75;;;4.70;99.90;;;;;;5105157;27;20039;-81
2023/01/17 14:17:21;;;;;;;1.80;0.60;;;4.60;99.90;;;;;;5104485;27;20053;-81
2023/01/17 14:19:49;;;;;;;2.97;0.80;;;4.60;99.90;;;;;;5107289;27;20039;-83
2023/01/17 14:22:48;;;;;;;2.25;0.70;;;4.00;99.90;;;;;;5098752;27;20082;-81
2023/01/17 14:25:21;;;;;;;2.08;0.70;;;4.50;99.90;;;;;;5090036;27;20063;-80
2023/01/17 14:27:50;;;;;;;3.35;0.98;;;4.50;99.90;;;;;;5104620;27;20078;-81
2023/01/17 14:30:16;;;;;;;3.33;0.68;;;4.40;99.90;;;;;;5105004;27;20059;-81
2023/01/17 14:33:00;;;;;;;2.90;0.70;;;4.40;99.90;;;;;;5117018;27;20061;-79
2023/01/17 14:35:50;;;;;;;5.10;2.28;;;4.40;99.90;;;;;;5108655;27;20050;-80
2023/01/17 14:38:22;;;;;;;2.13;0.73;;;4.40;99.90;;;;;;5093855;27;20055;-81
2023/01/17 14:41:06;;;;;;;2.53;0.90;;;4.30;99.90;;;;;;5100075;27;20050;-81
2023/01/17 14:43:35;;;;;;;2.17;1.00;;;4.30;99.90;;;;;;5118166;27;20043;-82
2023/01/17 14:46:11;;;;;;;3.85;0.95;;;4.30;99.90;;;;;;5100270;27;20077;-81
2023/01/17 14:48:39;;;;;;;1.73;0.70;;;4.20;99.90;;;;;;5112799;27;20125;-81